Time;durP1;ratioP1;P1;durP2;ratioP2;P2;SDS_P1;SDS_P2;PMS_P1;PMS_P2;Temp;Humidity;BMP_temperature;BMP_pressure;BME280_temperature;BME280_humidity;BME280_pressure;Samples;Min_cycle;Max_cycle;Signal;HPM_P1;HPM_P2
2022/01/09 00:01:29;;;;;;;37.23;8.73;;;6.90;99.90;;;;;;4972668;28;20237;-84
2022/01/09 00:03:54;;;;;;;41.97;6.97;;;7.00;99.90;;;;;;4974718;28;20307;-85
2022/01/09 00:06:20;;;;;;;27.40;4.80;;;6.90;99.90;;;;;;4968799;28;20221;-84
2022/01/09 00:08:46;;;;;;;26.13;4.73;;;7.00;99.90;;;;;;4979105;28;20174;-83
2022/01/09 00:11:15;;;;;;;35.53;6.53;;;7.00;99.90;;;;;;4978620;28;20206;-83
2022/01/09 00:13:41;;;;;;;36.17;5.77;;;7.10;99.90;;;;;;4979288;28;20198;-83
2022/01/09 00:16:08;;;;;;;45.70;6.97;;;7.10;99.90;;;;;;4995675;28;20290;-83
2022/01/09 00:18:34;;;;;;;47.67;8.30;;;7.10;99.90;;;;;;4978914;28;20596;-83
2022/01/09 00:21:05;;;;;;;35.53;6.07;;;7.10;99.90;;;;;;4979282;28;20185;-82
2022/01/09 00:23:32;;;;;;;21.33;4.73;;;7.00;99.90;;;;;;4978095;28;20205;-83
2022/01/09 00:25:59;;;;;;;34.23;5.47;;;6.90;99.90;;;;;;4995952;28;20176;-83
2022/01/09 00:28:25;;;;;;;36.20;9.07;;;6.80;99.90;;;;;;4994750;28;20565;-84
2022/01/09 00:30:50;;;;;;;37.27;9.17;;;6.90;99.90;;;;;;4978496;28;20260;-84
2022/01/09 00:33:16;;;;;;;35.57;5.60;;;6.90;99.90;;;;;;4978656;28;20290;-83
2022/01/09 00:35:41;;;;;;;31.57;5.40;;;7.00;99.90;;;;;;4978763;28;20178;-83
2022/01/09 00:38:07;;;;;;;33.73;7.10;;;7.00;99.90;;;;;;4978168;28;20221;-83
2022/01/09 00:40:33;;;;;;;31.53;5.67;;;7.10;99.90;;;;;;4995934;28;20225;-84
2022/01/09 00:42:58;;;;;;;38.73;5.87;;;7.10;99.90;;;;;;4978350;28;20170;-84
2022/01/09 00:45:24;;;;;;;39.07;9.80;;;7.20;99.90;;;;;;4978528;28;20185;-84
2022/01/09 00:47:49;;;;;;;33.20;5.97;;;7.10;99.90;;;;;;4978774;28;20198;-83
2022/01/09 00:50:16;;;;;;;36.97;8.33;;;7.00;99.90;;;;;;4978241;28;20222;-83
2022/01/09 00:52:41;;;;;;;40.13;5.53;;;6.90;99.90;;;;;;4995502;28;20271;-84
2022/01/09 00:55:08;;;;;;;36.00;4.97;;;6.90;99.90;;;;;;4978283;28;20214;-84
2022/01/09 00:57:34;;;;;;;30.40;5.43;;;6.90;99.90;;;;;;4978547;28;20206;-84
2022/01/09 00:59:59;;;;;;;42.57;7.27;;;6.90;99.90;;;;;;4995623;28;20702;-83
2022/01/09 01:02:25;;;;;;;39.40;6.70;;;6.90;99.90;;;;;;4978182;28;20264;-85
2022/01/09 01:04:51;;;;;;;38.10;6.77;;;7.00;99.90;;;;;;4978187;28;20185;-84
2022/01/09 01:07:19;;;;;;;35.10;6.43;;;7.10;99.90;;;;;;4995206;28;20185;-84
2022/01/09 01:09:45;;;;;;;33.57;5.53;;;7.10;99.90;;;;;;4994030;28;20245;-84
2022/01/09 01:12:10;;;;;;;26.47;5.87;;;7.20;99.90;;;;;;4995414;28;20170;-83
2022/01/09 01:14:36;;;;;;;32.77;6.47;;;7.10;99.90;;;;;;4978116;28;20260;-84
2022/01/09 01:17:03;;;;;;;33.43;5.43;;;7.20;99.90;;;;;;4977871;28;20246;-83
2022/01/09 01:19:29;;;;;;;41.10;6.93;;;7.10;99.90;;;;;;4995416;28;20250;-84
2022/01/09 01:21:55;;;;;;;28.10;5.77;;;7.10;99.90;;;;;;4994861;28;20631;-83
2022/01/09 01:24:21;;;;;;;31.53;5.43;;;7.10;99.90;;;;;;4993196;28;20218;-83
2022/01/09 01:26:48;;;;;;;40.93;5.27;;;7.10;99.90;;;;;;4995047;28;20262;-83
2022/01/09 01:29:15;;;;;;;27.40;5.30;;;7.10;99.90;;;;;;4995008;28;20249;-84
2022/01/09 01:31:40;;;;;;;33.87;5.57;;;7.10;99.90;;;;;;4995189;28;20182;-83
2022/01/09 01:34:06;;;;;;;26.63;5.80;;;7.00;99.90;;;;;;4995027;28;20671;-84
2022/01/09 01:36:32;;;;;;;24.03;5.33;;;6.80;99.90;;;;;;4994747;28;20175;-83
2022/01/09 01:38:57;;;;;;;28.53;4.47;;;6.60;99.90;;;;;;4994784;28;20215;-82
2022/01/09 01:41:23;;;;;;;30.20;4.70;;;6.50;99.90;;;;;;4977610;28;20245;-84
2022/01/09 01:43:48;;;;;;;29.80;5.73;;;6.50;99.90;;;;;;4994978;28;20174;-84
2022/01/09 01:46:14;;;;;;;37.67;5.93;;;6.60;99.90;;;;;;4977487;28;20178;-83
2022/01/09 01:48:40;;;;;;;39.93;7.53;;;6.60;99.90;;;;;;4994829;28;20186;-83
2022/01/09 01:51:06;;;;;;;30.13;4.93;;;6.70;99.90;;;;;;4976847;28;20208;-84
2022/01/09 01:53:31;;;;;;;26.07;5.07;;;6.80;99.90;;;;;;4994558;28;20170;-82
2022/01/09 01:56:00;;;;;;;23.40;4.07;;;6.80;99.90;;;;;;4977315;28;20229;-82
2022/01/09 01:58:26;;;;;;;33.83;5.23;;;6.80;99.90;;;;;;4977167;28;20685;-83
2022/01/09 02:00:52;;;;;;;30.53;5.00;;;6.80;99.90;;;;;;4977159;28;20202;-83
2022/01/09 02:03:18;;;;;;;33.80;4.97;;;6.80;99.90;;;;;;4976843;28;20170;-83
2022/01/09 02:05:45;;;;;;;37.93;5.20;;;6.80;99.90;;;;;;4977018;28;20182;-83
2022/01/09 02:08:12;;;;;;;27.00;4.93;;;6.60;99.90;;;;;;4976904;28;20181;-83
2022/01/09 02:10:44;;;;;;;57.33;5.37;;;6.50;99.90;;;;;;4994217;28;20206;-83
2022/01/09 02:13:10;;;;;;;29.43;4.57;;;6.50;99.90;;;;;;4994233;28;20190;-83
2022/01/09 02:15:42;;;;;;;32.23;5.30;;;6.60;99.90;;;;;;4977041;28;20233;-84
2022/01/09 02:18:20;;;;;;;23.60;4.30;;;6.70;99.90;;;;;;4992771;28;20228;-83
2022/01/09 02:20:47;;;;;;;30.40;5.20;;;6.60;99.90;;;;;;4994107;28;20197;-84
2022/01/09 02:23:14;;;;;;;20.87;4.90;;;6.60;99.90;;;;;;4994110;28;20170;-83
2022/01/09 02:25:41;;;;;;;28.57;4.57;;;6.60;99.90;;;;;;4994126;28;20166;-83
2022/01/09 02:28:07;;;;;;;26.47;4.03;;;6.70;99.90;;;;;;4994084;28;20201;-83
2022/01/09 02:30:34;;;;;;;23.80;4.97;;;6.70;99.90;;;;;;4992989;28;20209;-84
2022/01/09 02:33:07;;;;;;;21.87;4.00;;;6.70;99.90;;;;;;4993547;28;20177;-83
2022/01/09 02:35:34;;;;;;;21.63;4.30;;;6.70;99.90;;;;;;4993992;28;20185;-83
2022/01/09 02:38:02;;;;;;;29.73;4.67;;;6.70;99.90;;;;;;4993848;28;20166;-83
2022/01/09 02:40:28;;;;;;;20.77;3.43;;;6.70;99.90;;;;;;4976392;28;20213;-84
2022/01/09 02:42:54;;;;;;;18.43;3.30;;;6.70;99.90;;;;;;4993843;28;20209;-84
2022/01/09 02:45:23;;;;;;;25.70;4.17;;;6.70;99.90;;;;;;4993944;28;20182;-84
2022/01/09 02:47:50;;;;;;;26.47;4.37;;;6.60;99.90;;;;;;4993633;28;20155;-84
2022/01/09 02:52:53;;;;;;;21.83;4.07;;;6.50;99.90;;;;;;4993696;28;20562;-85
2022/01/09 02:55:21;;;;;;;26.80;3.80;;;6.60;99.90;;;;;;4992750;28;20642;-84
2022/01/09 02:58:13;;;;;;;27.73;3.73;;;6.70;99.90;;;;;;4992594;28;20178;-84
2022/01/09 03:00:42;;;;;;;22.73;4.00;;;6.70;99.90;;;;;;4972826;28;20328;-84
2022/01/09 03:03:08;;;;;;;16.63;3.77;;;6.60;99.90;;;;;;4992459;28;20601;-84
2022/01/09 03:05:34;;;;;;;24.97;3.60;;;6.60;99.90;;;;;;4976251;28;20178;-84
2022/01/09 03:07:59;;;;;;;18.67;3.30;;;6.60;99.90;;;;;;4976542;28;20174;-83
2022/01/09 03:10:25;;;;;;;21.87;3.30;;;6.50;99.90;;;;;;4993482;28;20248;-84
2022/01/09 03:12:53;;;;;;;20.20;4.17;;;6.50;99.90;;;;;;4976033;28;20198;-83
2022/01/09 03:15:19;;;;;;;19.67;3.70;;;6.50;99.90;;;;;;4976379;28;20210;-84
2022/01/09 03:17:45;;;;;;;22.03;3.53;;;6.50;99.90;;;;;;4975985;28;20180;-83
2022/01/09 03:20:22;;;;;;;20.47;4.10;;;6.50;99.90;;;;;;4993304;28;20190;-84
2022/01/09 03:22:49;;;;;;;24.23;3.43;;;6.50;99.90;;;;;;4993365;28;20174;-85
2022/01/09 03:25:15;;;;;;;21.70;3.03;;;6.60;99.90;;;;;;4993555;28;20162;-84
2022/01/09 03:27:42;;;;;;;21.57;3.60;;;6.60;99.90;;;;;;4993473;28;20178;-84
2022/01/09 03:30:09;;;;;;;21.60;3.63;;;6.60;99.90;;;;;;4976219;28;20607;-84
2022/01/09 03:32:37;;;;;;;27.07;4.00;;;6.60;99.90;;;;;;4975845;28;20169;-84
2022/01/09 03:35:04;;;;;;;19.47;4.63;;;6.50;99.90;;;;;;4993302;28;20182;-84
2022/01/09 03:37:30;;;;;;;18.27;3.03;;;6.50;99.90;;;;;;4976175;28;20178;-84
2022/01/09 03:39:55;;;;;;;19.23;3.40;;;6.50;99.90;;;;;;4975973;28;20234;-85
2022/01/09 03:42:21;;;;;;;16.70;3.17;;;6.50;99.90;;;;;;4975937;28;20213;-84
2022/01/09 03:44:47;;;;;;;31.97;4.37;;;6.60;99.90;;;;;;4975873;28;20174;-85
2022/01/09 03:47:12;;;;;;;17.83;2.77;;;6.70;99.90;;;;;;4977809;28;20173;-84
2022/01/09 03:49:38;;;;;;;13.83;3.07;;;6.60;99.90;;;;;;4997051;28;20604;-84
2022/01/09 03:52:04;;;;;;;18.93;3.20;;;6.60;99.90;;;;;;4979779;28;20197;-84
2022/01/09 03:54:29;;;;;;;21.00;2.87;;;6.50;99.90;;;;;;4995841;28;20178;-84
2022/01/09 03:56:55;;;;;;;16.37;2.70;;;6.40;99.90;;;;;;4979491;28;20662;-83
2022/01/09 03:59:21;;;;;;;16.40;3.13;;;6.40;99.90;;;;;;4979109;28;20186;-83
2022/01/09 04:01:46;;;;;;;17.23;3.17;;;6.40;99.90;;;;;;4979536;28;20182;-84
2022/01/09 04:04:12;;;;;;;26.33;4.13;;;6.40;99.90;;;;;;4996690;28;20175;-84
2022/01/09 04:06:48;;;;;;;13.33;2.60;;;6.50;99.90;;;;;;4979625;28;20174;-84
2022/01/09 04:09:27;;;;;;;14.30;3.23;;;6.40;99.90;;;;;;4979010;28;20247;-84
2022/01/09 04:12:01;;;;;;;15.50;2.73;;;6.40;99.90;;;;;;4979245;28;20208;-84
2022/01/09 04:14:27;;;;;;;18.57;3.63;;;6.60;99.90;;;;;;4996114;28;20378;-84
2022/01/09 04:16:53;;;;;;;14.33;2.90;;;6.60;99.90;;;;;;4979221;28;20272;-84
2022/01/09 04:19:18;;;;;;;27.30;3.83;;;6.60;99.90;;;;;;4978843;28;20665;-84
2022/01/09 04:21:44;;;;;;;20.07;3.50;;;6.60;99.90;;;;;;4979098;28;20721;-83
2022/01/09 04:24:10;;;;;;;19.40;2.40;;;6.60;99.90;;;;;;4979103;28;20205;-84
2022/01/09 04:26:37;;;;;;;18.73;2.53;;;6.60;99.90;;;;;;4979096;28;20186;-84
2022/01/09 04:29:03;;;;;;;15.87;2.77;;;6.60;99.90;;;;;;4995848;28;20170;-84
2022/01/09 04:31:29;;;;;;;21.50;3.03;;;6.50;99.90;;;;;;4996363;28;20178;-84
2022/01/09 04:33:55;;;;;;;23.50;3.53;;;6.40;99.90;;;;;;4978930;28;20239;-85
2022/01/09 04:36:20;;;;;;;15.20;2.83;;;6.30;99.90;;;;;;4978774;28;20665;-84
2022/01/09 04:38:46;;;;;;;15.93;2.93;;;6.10;99.90;;;;;;4978723;28;20544;-84
2022/01/09 04:41:11;;;;;;;14.53;2.33;;;6.20;99.90;;;;;;4978750;28;20228;-84
2022/01/09 04:43:37;;;;;;;14.53;2.60;;;6.20;99.90;;;;;;4978994;28;20177;-84
2022/01/09 04:46:03;;;;;;;23.97;3.30;;;6.10;99.90;;;;;;4978694;28;20178;-84
2022/01/09 04:48:28;;;;;;;11.77;2.43;;;6.10;99.90;;;;;;4996018;28;20272;-86
2022/01/09 04:50:55;;;;;;;24.40;3.47;;;6.00;99.90;;;;;;4978490;28;20678;-84
2022/01/09 04:53:21;;;;;;;18.33;3.73;;;6.00;99.90;;;;;;4995821;28;20170;-84
2022/01/09 04:55:50;;;;;;;18.63;2.77;;;6.00;99.90;;;;;;4978666;28;20228;-84
2022/01/09 04:58:17;;;;;;;25.23;3.30;;;6.00;99.90;;;;;;4976954;28;20188;-84
2022/01/09 05:00:43;;;;;;;17.17;2.90;;;6.00;99.90;;;;;;4994593;28;20716;-84
2022/01/09 05:03:12;;;;;;;14.37;2.67;;;6.10;99.90;;;;;;4978538;28;20178;-84
2022/01/09 05:05:38;;;;;;;10.93;2.10;;;6.10;99.90;;;;;;4978437;28;20205;-84
2022/01/09 05:08:04;;;;;;;16.13;2.70;;;6.20;99.90;;;;;;4995647;28;20586;-84
2022/01/09 05:10:30;;;;;;;16.00;2.87;;;6.20;99.90;;;;;;4978092;28;20312;-84
2022/01/09 05:12:55;;;;;;;16.90;2.73;;;6.10;99.90;;;;;;4977678;28;20539;-84
2022/01/09 05:15:22;;;;;;;13.07;2.53;;;6.10;99.90;;;;;;4995322;28;20186;-84
2022/01/09 05:17:50;;;;;;;15.20;2.93;;;6.10;99.90;;;;;;4995600;28;20217;-85
2022/01/09 05:20:16;;;;;;;17.00;2.50;;;6.10;99.90;;;;;;4995072;28;20198;-85
2022/01/09 05:22:41;;;;;;;17.70;3.50;;;6.10;99.90;;;;;;4978190;28;20189;-84
2022/01/09 05:25:08;;;;;;;15.10;2.80;;;6.10;99.90;;;;;;4995523;28;20181;-85
2022/01/09 05:27:35;;;;;;;16.13;2.43;;;6.10;99.90;;;;;;4994116;28;20178;-84
2022/01/09 05:30:00;;;;;;;19.50;3.80;;;6.10;99.90;;;;;;4977932;28;20222;-84
2022/01/09 05:32:26;;;;;;;23.73;3.17;;;6.10;99.90;;;;;;4977930;28;20188;-83
2022/01/09 05:34:52;;;;;;;14.93;2.90;;;6.10;99.90;;;;;;4977875;28;20178;-85
2022/01/09 05:37:17;;;;;;;17.43;2.87;;;6.00;99.90;;;;;;4977707;28;20305;-84
2022/01/09 05:39:43;;;;;;;14.13;2.60;;;6.00;99.90;;;;;;4977653;28;20228;-84
2022/01/09 05:42:11;;;;;;;13.43;2.70;;;6.00;99.90;;;;;;4994780;28;20666;-85
2022/01/09 05:44:37;;;;;;;17.40;2.30;;;5.90;99.90;;;;;;4994114;28;20193;-84
2022/01/09 05:47:04;;;;;;;12.67;2.50;;;5.80;99.90;;;;;;4977473;28;20666;-84
2022/01/09 05:49:30;;;;;;;15.00;2.43;;;5.70;99.90;;;;;;4994690;28;20589;-85
2022/01/09 05:51:56;;;;;;;10.57;2.37;;;5.70;99.90;;;;;;4994711;28;20265;-84
2022/01/09 05:54:22;;;;;;;17.50;2.57;;;5.70;99.90;;;;;;4994624;28;20186;-84
2022/01/09 05:56:48;;;;;;;18.00;2.57;;;5.70;99.90;;;;;;4977169;28;20726;-85
2022/01/09 05:59:14;;;;;;;12.77;2.43;;;5.70;99.90;;;;;;4977368;28;20545;-84
2022/01/09 06:01:39;;;;;;;16.80;2.70;;;5.60;99.90;;;;;;4994658;28;20181;-85
2022/01/09 06:04:05;;;;;;;17.13;2.80;;;5.60;99.90;;;;;;4994512;28;20173;-85
2022/01/09 06:06:32;;;;;;;9.33;2.17;;;5.60;99.90;;;;;;4994492;28;20237;-84
2022/01/09 06:08:58;;;;;;;20.97;3.33;;;5.70;99.90;;;;;;4976898;28;20642;-84
2022/01/09 06:11:23;;;;;;;14.93;2.23;;;5.70;99.90;;;;;;4993797;28;20220;-85
2022/01/09 06:13:49;;;;;;;14.33;3.27;;;5.70;99.90;;;;;;4977058;28;20194;-85
2022/01/09 06:16:14;;;;;;;16.27;2.60;;;5.70;99.90;;;;;;4994156;28;20689;-84
2022/01/09 06:18:40;;;;;;;14.47;3.20;;;5.60;99.90;;;;;;4976857;28;20181;-85
2022/01/09 06:21:06;;;;;;;14.07;3.03;;;5.60;99.90;;;;;;4977170;28;20190;-84
2022/01/09 06:23:31;;;;;;;13.37;2.23;;;5.70;99.90;;;;;;4976981;28;20177;-85
2022/01/09 06:25:57;;;;;;;17.40;3.03;;;5.70;99.90;;;;;;4994313;28;20217;-83
2022/01/09 06:28:23;;;;;;;13.97;3.00;;;5.80;99.90;;;;;;4976763;28;20221;-85
2022/01/09 06:30:49;;;;;;;9.43;3.03;;;5.80;99.90;;;;;;4993830;28;20213;-81
2022/01/09 06:33:14;;;;;;;9.07;2.73;;;5.80;99.90;;;;;;4993532;28;20257;-81
2022/01/09 06:35:41;;;;;;;17.10;2.60;;;5.80;99.90;;;;;;4975976;28;20281;-84
2022/01/09 06:38:08;;;;;;;13.20;2.93;;;5.70;99.90;;;;;;4993954;28;20178;-85
2022/01/09 06:40:34;;;;;;;13.93;2.67;;;5.60;99.90;;;;;;4976475;28;20273;-84
2022/01/09 06:43:00;;;;;;;16.60;3.03;;;5.70;99.90;;;;;;4994049;28;20174;-86
2022/01/09 06:45:27;;;;;;;13.77;2.63;;;5.70;99.90;;;;;;4992901;28;20233;-84
2022/01/09 06:47:53;;;;;;;10.70;3.13;;;5.70;99.90;;;;;;4976565;28;20189;-83
2022/01/09 06:50:20;;;;;;;14.03;3.43;;;5.70;99.90;;;;;;4994438;28;20301;-85
2022/01/09 06:52:45;;;;;;;14.53;2.83;;;5.70;99.90;;;;;;4976372;28;20777;-85
2022/01/09 06:55:12;;;;;;;10.60;2.33;;;5.70;99.90;;;;;;4976416;28;20280;-85
2022/01/09 06:57:37;;;;;;;14.10;2.93;;;5.70;99.90;;;;;;4976324;28;20529;-85
2022/01/09 07:00:05;;;;;;;18.83;2.83;;;5.60;99.90;;;;;;4994020;28;20181;-85
2022/01/09 07:02:30;;;;;;;15.10;2.83;;;5.50;99.90;;;;;;4975941;28;20182;-84
2022/01/09 07:04:56;;;;;;;11.63;2.33;;;5.50;99.90;;;;;;4976535;28;20305;-85
2022/01/09 07:07:22;;;;;;;16.17;2.87;;;5.50;99.90;;;;;;4993532;28;20177;-84
2022/01/09 07:09:47;;;;;;;15.33;2.43;;;5.40;99.90;;;;;;4993400;28;20244;-84
2022/01/09 07:12:13;;;;;;;9.17;2.17;;;5.40;99.90;;;;;;4993667;28;20178;-85
2022/01/09 07:14:38;;;;;;;9.10;2.03;;;5.40;99.90;;;;;;4993484;28;20201;-85
2022/01/09 07:17:05;;;;;;;11.60;2.10;;;5.40;99.90;;;;;;4976430;28;20182;-85
2022/01/09 07:19:31;;;;;;;10.73;2.33;;;5.50;99.90;;;;;;4976135;28;20696;-83
2022/01/09 07:21:56;;;;;;;14.63;2.57;;;5.50;99.90;;;;;;4977706;28;20188;-85
2022/01/09 07:24:22;;;;;;;18.27;2.77;;;5.60;99.90;;;;;;4997240;28;20182;-85
2022/01/09 07:26:48;;;;;;;15.00;3.57;;;5.50;99.90;;;;;;4980291;28;20173;-87
2022/01/09 07:29:13;;;;;;;9.63;1.70;;;5.50;99.90;;;;;;4979977;28;20630;-86
2022/01/09 07:31:39;;;;;;;7.63;2.17;;;5.60;99.90;;;;;;4980251;28;20232;-85
2022/01/09 07:34:05;;;;;;;12.87;2.73;;;5.60;99.90;;;;;;4979831;28;20174;-82
2022/01/09 07:36:31;;;;;;;15.10;3.37;;;5.60;99.90;;;;;;4980243;28;20181;-85
2022/01/09 07:38:57;;;;;;;18.77;2.90;;;5.50;99.90;;;;;;4996876;28;20231;-84
2022/01/09 07:41:23;;;;;;;18.93;2.83;;;5.50;99.90;;;;;;4979893;28;20201;-85
2022/01/09 07:43:49;;;;;;;13.57;2.90;;;5.60;99.90;;;;;;4997086;28;20639;-85
2022/01/09 07:46:15;;;;;;;14.33;2.70;;;5.60;99.90;;;;;;4979918;28;20176;-85
2022/01/09 07:48:40;;;;;;;16.23;2.10;;;5.60;99.90;;;;;;4979582;28;20193;-84
2022/01/09 07:51:06;;;;;;;18.33;2.60;;;5.50;99.90;;;;;;4997083;28;20701;-84
2022/01/09 07:53:32;;;;;;;13.07;2.63;;;5.50;99.90;;;;;;4996782;28;20705;-84
2022/01/09 07:55:58;;;;;;;18.13;2.80;;;5.50;99.90;;;;;;4997070;28;20195;-85
2022/01/09 07:58:23;;;;;;;13.90;2.20;;;5.60;99.90;;;;;;4996912;28;20693;-84
2022/01/09 08:00:49;;;;;;;18.57;3.30;;;5.50;99.90;;;;;;4979664;28;20186;-85
2022/01/09 08:03:15;;;;;;;18.03;3.00;;;5.60;99.90;;;;;;4979464;28;20185;-85
2022/01/09 08:05:41;;;;;;;13.77;2.13;;;5.50;99.90;;;;;;4996594;28;20182;-84
2022/01/09 08:08:07;;;;;;;17.43;3.00;;;5.60;99.90;;;;;;4979303;28;20170;-85
2022/01/09 08:10:33;;;;;;;24.90;3.03;;;5.60;99.90;;;;;;4979288;28;20276;-85
2022/01/09 08:13:00;;;;;;;12.87;2.80;;;5.70;99.90;;;;;;4996753;28;20197;-84
2022/01/09 08:15:27;;;;;;;13.67;2.53;;;5.70;99.90;;;;;;4979405;28;20181;-84
2022/01/09 08:17:54;;;;;;;20.47;3.03;;;5.80;99.90;;;;;;4979359;28;20172;-84
2022/01/09 08:20:20;;;;;;;11.33;2.50;;;5.70;99.90;;;;;;4996074;28;20696;-84
2022/01/09 08:22:45;;;;;;;16.40;3.10;;;5.80;99.90;;;;;;4979022;28;20269;-85
2022/01/09 08:25:13;;;;;;;20.07;2.70;;;5.70;99.90;;;;;;4996391;28;20190;-84
2022/01/09 08:27:38;;;;;;;13.57;2.43;;;5.80;99.90;;;;;;4995222;28;20170;-85
2022/01/09 08:30:07;;;;;;;21.33;3.13;;;5.80;99.90;;;;;;4978880;28;20207;-85
2022/01/09 08:32:33;;;;;;;12.63;2.13;;;5.80;99.90;;;;;;4978723;28;20181;-85
2022/01/09 08:34:59;;;;;;;12.13;2.53;;;5.80;99.90;;;;;;4978678;28;20178;-85
2022/01/09 08:37:25;;;;;;;16.50;3.27;;;5.70;99.90;;;;;;4979118;28;20257;-85
2022/01/09 08:39:51;;;;;;;16.67;3.30;;;5.90;99.90;;;;;;4978680;28;20356;-84
2022/01/09 08:42:17;;;;;;;11.87;2.63;;;5.80;99.90;;;;;;4979003;28;20181;-85
2022/01/09 08:44:42;;;;;;;16.63;2.53;;;5.90;99.90;;;;;;4978597;28;20266;-86
2022/01/09 08:47:09;;;;;;;20.77;3.07;;;5.80;99.90;;;;;;4996144;28;20193;-86
2022/01/09 08:49:34;;;;;;;22.07;3.67;;;5.90;99.90;;;;;;4994382;28;20241;-86
2022/01/09 08:52:01;;;;;;;13.70;2.30;;;5.90;99.90;;;;;;4978936;28;20219;-86
2022/01/09 08:54:26;;;;;;;10.03;2.10;;;5.80;99.90;;;;;;4978407;28;20188;-86
2022/01/09 08:56:52;;;;;;;18.37;2.47;;;5.80;99.90;;;;;;4995945;28;20178;-85
2022/01/09 08:59:19;;;;;;;13.07;2.80;;;5.90;99.90;;;;;;4995914;28;20190;-85
2022/01/09 09:01:46;;;;;;;15.63;2.67;;;5.90;99.90;;;;;;4995732;28;20220;-86
2022/01/09 09:04:13;;;;;;;18.03;3.50;;;6.00;99.90;;;;;;4995462;28;20531;-85
2022/01/09 09:06:39;;;;;;;12.87;2.50;;;5.90;99.90;;;;;;4995421;28;20178;-83
2022/01/09 09:09:05;;;;;;;14.77;2.53;;;6.00;99.90;;;;;;4977683;28;20181;-85
2022/01/09 09:11:31;;;;;;;20.87;3.87;;;6.00;99.90;;;;;;4978066;28;20225;-84
2022/01/09 09:13:56;;;;;;;13.03;2.07;;;6.00;99.90;;;;;;4977906;28;20198;-85
2022/01/09 09:16:22;;;;;;;14.73;3.37;;;6.00;99.90;;;;;;4977575;28;20589;-85
2022/01/09 09:18:50;;;;;;;12.80;2.77;;;6.00;99.90;;;;;;4977433;28;20182;-85
2022/01/09 09:21:16;;;;;;;15.20;2.53;;;6.10;99.90;;;;;;4995369;28;20249;-86
2022/01/09 09:23:42;;;;;;;12.63;3.07;;;6.20;99.90;;;;;;4995499;28;20257;-85
2022/01/09 09:26:09;;;;;;;14.93;4.23;;;6.00;99.90;;;;;;4977762;28;20273;-85
2022/01/09 09:28:36;;;;;;;15.30;2.47;;;6.00;99.90;;;;;;4995199;28;20170;-86
2022/01/09 09:31:02;;;;;;;12.93;2.63;;;6.00;99.90;;;;;;4977717;28;20744;-86
2022/01/09 09:33:28;;;;;;;22.07;2.77;;;5.90;99.90;;;;;;4977225;28;20174;-92
2022/01/09 09:35:54;;;;;;;11.57;2.80;;;6.00;99.90;;;;;;4981327;28;20191;-92
2022/01/09 09:38:19;;;;;;;20.27;3.27;;;6.10;99.90;;;;;;4976418;28;20174;-92
2022/01/09 09:40:45;;;;;;;16.10;2.73;;;6.20;99.90;;;;;;4958534;28;20183;-91
2022/01/09 09:43:11;;;;;;;13.33;2.57;;;6.40;99.90;;;;;;4959049;28;20242;-92
2022/01/09 09:45:37;;;;;;;15.20;2.30;;;6.30;99.90;;;;;;4957678;28;20245;-90
2022/01/09 09:48:02;;;;;;;14.67;2.70;;;6.40;99.90;;;;;;4977075;28;20187;-93
2022/01/09 09:50:28;;;;;;;14.73;2.70;;;6.40;99.90;;;;;;4973928;28;20213;-92
2022/01/09 09:52:53;;;;;;;16.67;2.70;;;6.50;99.90;;;;;;4974605;28;20630;-95
2022/01/09 09:55:19;;;;;;;10.03;2.57;;;6.40;99.90;;;;;;4977603;28;20272;-92
2022/01/09 09:57:46;;;;;;;15.83;2.40;;;6.40;99.90;;;;;;4977781;28;20185;-93
2022/01/09 10:00:17;;;;;;;15.80;2.90;;;6.50;99.90;;;;;;4977634;28;20185;-92
2022/01/09 10:02:51;;;;;;;18.33;2.80;;;6.60;99.90;;;;;;4977482;28;20204;-94
2022/01/09 10:05:20;;;;;;;17.93;2.67;;;6.70;99.90;;;;;;4977317;28;20209;-92
2022/01/09 10:07:46;;;;;;;13.60;2.73;;;6.60;99.90;;;;;;4976216;28;20688;-92
2022/01/09 10:10:17;;;;;;;19.07;3.13;;;6.70;99.90;;;;;;4977234;28;20221;-93
2022/01/09 10:12:45;;;;;;;16.37;2.43;;;6.80;99.90;;;;;;4993769;28;20202;-92
2022/01/09 10:15:20;;;;;;;19.23;3.07;;;6.60;99.90;;;;;;4977475;28;20209;-92
2022/01/09 10:17:48;;;;;;;13.60;2.80;;;6.60;99.90;;;;;;4970728;28;20740;-95
2022/01/09 10:20:20;;;;;;;11.90;2.20;;;6.60;99.90;;;;;;4996234;28;20197;-89
2022/01/09 10:22:51;;;;;;;10.80;2.27;;;6.70;99.90;;;;;;4989001;28;20186;-90
2022/01/09 10:25:21;;;;;;;17.20;2.70;;;6.70;99.90;;;;;;4988152;28;20188;-84
2022/01/09 10:27:51;;;;;;;12.83;3.00;;;6.90;99.90;;;;;;4995780;28;20201;-82
2022/01/09 10:30:21;;;;;;;12.50;2.20;;;7.10;99.90;;;;;;5000903;28;20213;-87
2022/01/09 10:32:46;;;;;;;12.63;2.40;;;7.30;99.90;;;;;;4993675;28;20186;-87
2022/01/09 10:35:19;;;;;;;16.07;3.43;;;7.30;99.90;;;;;;5005414;28;20178;-87
2022/01/09 10:37:49;;;;;;;14.97;2.87;;;7.30;99.90;;;;;;4994176;28;20181;-88
2022/01/09 10:40:22;;;;;;;12.43;2.70;;;7.30;99.90;;;;;;5004209;28;20335;-94
2022/01/09 10:43:12;;;;;;;13.67;2.87;;;7.20;99.90;;;;;;5003125;28;20185;-95
2022/01/09 10:45:41;;;;;;;7.70;2.50;;;7.70;99.90;;;;;;4999909;28;20173;-95
2022/01/09 10:48:12;;;;;;;13.00;2.57;;;7.90;99.90;;;;;;5010136;28;20177;-94
2022/01/09 10:50:43;;;;;;;12.63;1.93;;;7.70;99.90;;;;;;5009433;28;20252;-91
2022/01/09 10:53:32;;;;;;;12.47;2.83;;;7.80;99.90;;;;;;4967727;28;20250;-96
2022/01/09 10:56:15;;;;;;;13.60;2.60;;;8.10;99.90;;;;;;4978484;28;20189;-94
2022/01/09 10:58:49;;;;;;;12.27;2.80;;;8.70;99.90;;;;;;4986270;28;20215;-90
2022/01/09 11:01:26;;;;;;;12.90;3.40;;;9.00;99.90;;;;;;4992775;28;20212;-96
2022/01/09 11:03:57;;;;;;;18.20;3.13;;;8.70;99.90;;;;;;4987036;28;20213;-89
2022/01/09 11:06:26;;;;;;;16.10;3.47;;;8.60;99.90;;;;;;4973438;28;20236;-96
2022/01/09 11:08:53;;;;;;;13.50;2.80;;;8.90;99.90;;;;;;4993043;28;20646;-93
2022/01/09 11:11:25;;;;;;;12.80;2.63;;;8.90;99.90;;;;;;4994212;28;20213;-96
2022/01/09 11:13:53;;;;;;;12.87;2.87;;;8.50;99.90;;;;;;4976111;28;20273;-96
2022/01/09 11:16:33;;;;;;;12.40;2.83;;;8.90;99.90;;;;;;4991579;28;20188;-96
2022/01/09 11:19:18;;;;;;;13.47;2.80;;;9.80;99.90;;;;;;5008207;28;20201;-96
2022/01/09 11:21:55;;;;;;;18.63;3.03;;;10.40;99.90;;;;;;4983586;28;20312;-95
2022/01/09 11:24:58;;;;;;;9.20;2.27;;;10.70;99.90;;;;;;4978796;28;20185;-90
2022/01/09 11:27:29;;;;;;;9.03;2.87;;;10.60;99.90;;;;;;4984517;28;20186;-89
2022/01/09 11:30:20;;;;;;;9.73;2.80;;;10.90;99.90;;;;;;5018622;28;20205;-86
2022/01/09 11:33:19;;;;;;;16.57;2.77;;;11.70;99.90;;;;;;5020222;28;20180;-85
2022/01/09 11:36:21;;;;;;;10.20;2.50;;;11.90;99.90;;;;;;5017960;28;20182;-82
2022/01/09 11:39:11;;;;;;;15.63;2.97;;;11.10;99.90;;;;;;4989912;28;20185;-81
2022/01/09 11:41:39;;;;;;;12.43;3.13;;;10.30;99.90;;;;;;5011708;28;20180;-81
2022/01/09 11:44:10;;;;;;;13.20;2.93;;;9.90;99.90;;;;;;4997644;28;20182;-82
2022/01/09 11:46:54;;;;;;;13.07;2.33;;;9.80;99.90;;;;;;5013777;28;20179;-80
2022/01/09 11:49:21;;;;;;;11.67;2.30;;;9.70;99.90;;;;;;5012013;28;20217;-83
2022/01/09 11:51:53;;;;;;;14.63;3.00;;;10.40;99.90;;;;;;5001734;28;20197;-83
2022/01/09 11:54:20;;;;;;;15.53;2.40;;;10.60;99.90;;;;;;4998529;28;20182;-81
2022/01/09 11:57:01;;;;;;;10.23;1.63;;;10.40;99.90;;;;;;4970077;28;20224;-86
2022/01/09 11:59:37;;;;;;;11.10;2.57;;;9.90;99.90;;;;;;4994585;28;20207;-81
2022/01/09 12:02:05;;;;;;;13.67;2.70;;;9.70;99.90;;;;;;5006520;28;20187;-85
2022/01/09 12:04:31;;;;;;;12.70;2.60;;;10.00;99.90;;;;;;5010342;28;20207;-83
2022/01/09 12:07:08;;;;;;;11.93;2.23;;;9.90;99.90;;;;;;5006742;28;20195;-92
2022/01/09 12:09:41;;;;;;;12.40;2.90;;;9.70;99.90;;;;;;5008193;28;20185;-95
2022/01/09 12:12:17;;;;;;;11.77;2.73;;;9.80;99.90;;;;;;4998523;28;20229;-93
2022/01/09 12:14:45;;;;;;;12.93;2.97;;;9.90;99.90;;;;;;4998556;28;20186;-93
2022/01/09 12:17:26;;;;;;;11.07;2.63;;;10.10;99.90;;;;;;5007848;28;20196;-92
2022/01/09 12:20:27;;;;;;;12.27;2.80;;;10.00;99.90;;;;;;4991362;28;20221;-92
2022/01/09 17:21:01;;;;;;;14.17;6.20;;;7.60;99.90;;;;;;4995732;28;20225;-85
2022/01/09 17:23:27;;;;;;;32.43;17.80;;;7.60;99.90;;;;;;4979349;28;20182;-85
2022/01/09 17:25:54;;;;;;;23.93;9.43;;;7.60;99.90;;;;;;4978947;28;20273;-85
2022/01/09 17:28:21;;;;;;;27.47;16.43;;;7.70;99.90;;;;;;4979257;28;20185;-85
2022/01/09 17:30:47;;;;;;;20.50;6.90;;;7.60;99.90;;;;;;4978603;28;20686;-85
2022/01/09 17:33:13;;;;;;;24.77;6.70;;;7.40;99.90;;;;;;4978653;28;20220;-85
2022/01/09 17:35:39;;;;;;;20.80;5.87;;;7.40;99.90;;;;;;4978231;28;20247;-86
2022/01/09 17:38:06;;;;;;;28.23;10.33;;;7.60;99.90;;;;;;4978659;28;20662;-85
2022/01/09 17:40:32;;;;;;;20.67;6.87;;;7.60;99.90;;;;;;4995723;28;20190;-85
2022/01/09 17:42:58;;;;;;;21.03;7.70;;;7.50;99.90;;;;;;4978951;28;20696;-84
2022/01/09 17:45:24;;;;;;;29.60;12.27;;;7.40;99.90;;;;;;4979766;28;20185;-85
2022/01/09 17:47:50;;;;;;;17.03;7.20;;;7.30;99.90;;;;;;5000287;28;20631;-85
2022/01/09 17:50:16;;;;;;;22.00;9.07;;;7.20;99.90;;;;;;4976757;28;20209;-85